sensor_id;sensor_type;location;lat;lon;timestamp;P1;durP1;ratioP1;P2;durP2;ratioP2
52057;SDS011;38063;53.210;6.504;2023-03-11T00:00:56;5.97;;;0.95;;
52057;SDS011;38063;53.210;6.504;2023-03-11T00:03:21;3.38;;;1.00;;
52057;SDS011;38063;53.210;6.504;2023-03-11T00:05:48;2.70;;;0.73;;
52057;SDS011;38063;53.210;6.504;2023-03-11T00:08:16;3.70;;;1.00;;
52057;SDS011;38063;53.210;6.504;2023-03-11T00:10:44;4.63;;;1.13;;
52057;SDS011;38063;53.210;6.504;2023-03-11T00:13:11;2.88;;;0.80;;
52057;SDS011;38063;53.210;6.504;2023-03-11T00:15:38;4.22;;;0.80;;
52057;SDS011;38063;53.210;6.504;2023-03-11T00:18:05;4.68;;;0.80;;
52057;SDS011;38063;53.210;6.504;2023-03-11T00:20:32;2.42;;;0.73;;
52057;SDS011;38063;53.210;6.504;2023-03-11T00:22:59;4.93;;;0.98;;
52057;SDS011;38063;53.210;6.504;2023-03-11T00:25:27;6.18;;;2.08;;
52057;SDS011;38063;53.210;6.504;2023-03-11T00:27:54;2.85;;;0.90;;
52057;SDS011;38063;53.210;6.504;2023-03-11T00:30:20;3.83;;;0.85;;
52057;SDS011;38063;53.210;6.504;2023-03-11T00:32:48;3.92;;;0.75;;
52057;SDS011;38063;53.210;6.504;2023-03-11T00:35:16;1.65;;;1.00;;
52057;SDS011;38063;53.210;6.504;2023-03-11T00:37:44;6.35;;;1.20;;
52057;SDS011;38063;53.210;6.504;2023-03-11T00:40:12;4.53;;;1.10;;
52057;SDS011;38063;53.210;6.504;2023-03-11T00:42:42;5.50;;;1.15;;
52057;SDS011;38063;53.210;6.504;2023-03-11T00:45:08;7.00;;;1.05;;
52057;SDS011;38063;53.210;6.504;2023-03-11T00:47:33;2.53;;;0.90;;
52057;SDS011;38063;53.210;6.504;2023-03-11T00:49:59;7.30;;;1.00;;
52057;SDS011;38063;53.210;6.504;2023-03-11T00:52:25;6.50;;;1.02;;
52057;SDS011;38063;53.210;6.504;2023-03-11T00:54:50;6.72;;;0.95;;
52057;SDS011;38063;53.210;6.504;2023-03-11T00:57:16;7.30;;;1.27;;
52057;SDS011;38063;53.210;6.504;2023-03-11T00:59:42;3.15;;;0.80;;
52057;SDS011;38063;53.210;6.504;2023-03-11T01:02:07;3.65;;;1.33;;
52057;SDS011;38063;53.210;6.504;2023-03-11T01:04:33;1.48;;;0.70;;
52057;SDS011;38063;53.210;6.504;2023-03-11T01:06:58;2.85;;;0.90;;
52057;SDS011;38063;53.210;6.504;2023-03-11T01:09:24;2.35;;;0.68;;
52057;SDS011;38063;53.210;6.504;2023-03-11T01:11:50;4.45;;;0.90;;
52057;SDS011;38063;53.210;6.504;2023-03-11T01:14:16;6.10;;;0.90;;
52057;SDS011;38063;53.210;6.504;2023-03-11T01:16:42;3.88;;;0.90;;
52057;SDS011;38063;53.210;6.504;2023-03-11T01:19:08;1.90;;;1.20;;
52057;SDS011;38063;53.210;6.504;2023-03-11T01:21:33;6.50;;;1.23;;
52057;SDS011;38063;53.210;6.504;2023-03-11T01:23:59;3.63;;;0.95;;
52057;SDS011;38063;53.210;6.504;2023-03-11T01:26:25;4.47;;;0.93;;
52057;SDS011;38063;53.210;6.504;2023-03-11T01:28:50;3.67;;;1.02;;
52057;SDS011;38063;53.210;6.504;2023-03-11T01:31:16;2.75;;;0.70;;
52057;SDS011;38063;53.210;6.504;2023-03-11T01:33:41;5.80;;;0.90;;
52057;SDS011;38063;53.210;6.504;2023-03-11T01:36:07;3.00;;;0.88;;
52057;SDS011;38063;53.210;6.504;2023-03-11T01:38:33;1.58;;;0.93;;
52057;SDS011;38063;53.210;6.504;2023-03-11T01:40:59;3.00;;;0.95;;
52057;SDS011;38063;53.210;6.504;2023-03-11T01:48:48;5.38;;;1.10;;
52057;SDS011;38063;53.210;6.504;2023-03-11T01:51:29;8.32;;;1.00;;
52057;SDS011;38063;53.210;6.504;2023-03-11T01:54:01;5.53;;;0.77;;
52057;SDS011;38063;53.210;6.504;2023-03-11T01:56:43;4.43;;;0.70;;
52057;SDS011;38063;53.210;6.504;2023-03-11T01:59:11;7.32;;;1.55;;
52057;SDS011;38063;53.210;6.504;2023-03-11T02:01:44;2.40;;;0.70;;
52057;SDS011;38063;53.210;6.504;2023-03-11T02:04:19;8.52;;;1.10;;
52057;SDS011;38063;53.210;6.504;2023-03-11T02:06:45;6.63;;;0.98;;
52057;SDS011;38063;53.210;6.504;2023-03-11T02:09:11;1.75;;;0.70;;
52057;SDS011;38063;53.210;6.504;2023-03-11T02:11:37;5.28;;;0.85;;
52057;SDS011;38063;53.210;6.504;2023-03-11T02:14:03;2.05;;;0.90;;
52057;SDS011;38063;53.210;6.504;2023-03-11T02:16:31;5.15;;;0.82;;
52057;SDS011;38063;53.210;6.504;2023-03-11T02:18:58;2.58;;;0.82;;
52057;SDS011;38063;53.210;6.504;2023-03-11T02:21:29;3.05;;;0.80;;
52057;SDS011;38063;53.210;6.504;2023-03-11T02:29:13;1.55;;;0.60;;
52057;SDS011;38063;53.210;6.504;2023-03-11T02:31:39;4.45;;;0.95;;
52057;SDS011;38063;53.210;6.504;2023-03-11T02:34:07;2.60;;;0.70;;
52057;SDS011;38063;53.210;6.504;2023-03-11T02:36:39;2.03;;;0.65;;
52057;SDS011;38063;53.210;6.504;2023-03-11T02:39:07;2.03;;;0.82;;
52057;SDS011;38063;53.210;6.504;2023-03-11T02:41:34;2.35;;;0.80;;
52057;SDS011;38063;53.210;6.504;2023-03-11T02:44:03;4.80;;;0.98;;
52057;SDS011;38063;53.210;6.504;2023-03-11T02:46:31;3.63;;;1.00;;
52057;SDS011;38063;53.210;6.504;2023-03-11T02:48:57;3.88;;;1.10;;
52057;SDS011;38063;53.210;6.504;2023-03-11T02:51:24;3.67;;;1.00;;
52057;SDS011;38063;53.210;6.504;2023-03-11T02:53:50;4.53;;;1.00;;
52057;SDS011;38063;53.210;6.504;2023-03-11T02:56:19;4.65;;;0.80;;
52057;SDS011;38063;53.210;6.504;2023-03-11T02:58:44;3.22;;;0.63;;
52057;SDS011;38063;53.210;6.504;2023-03-11T03:01:10;1.48;;;0.60;;
52057;SDS011;38063;53.210;6.504;2023-03-11T03:03:36;2.30;;;1.13;;
52057;SDS011;38063;53.210;6.504;2023-03-11T03:06:02;3.40;;;0.98;;
52057;SDS011;38063;53.210;6.504;2023-03-11T03:08:27;3.55;;;0.95;;
52057;SDS011;38063;53.210;6.504;2023-03-11T03:10:53;2.65;;;1.10;;
52057;SDS011;38063;53.210;6.504;2023-03-11T03:13:19;4.72;;;1.00;;
52057;SDS011;38063;53.210;6.504;2023-03-11T03:15:44;4.32;;;0.98;;
52057;SDS011;38063;53.210;6.504;2023-03-11T03:18:10;2.28;;;0.80;;
52057;SDS011;38063;53.210;6.504;2023-03-11T03:20:36;2.63;;;1.00;;
52057;SDS011;38063;53.210;6.504;2023-03-11T03:23:01;2.55;;;0.80;;
52057;SDS011;38063;53.210;6.504;2023-03-11T03:25:27;3.65;;;0.70;;
52057;SDS011;38063;53.210;6.504;2023-03-11T03:27:53;2.28;;;0.93;;
52057;SDS011;38063;53.210;6.504;2023-03-11T03:30:19;3.25;;;0.63;;
52057;SDS011;38063;53.210;6.504;2023-03-11T03:32:44;3.78;;;0.80;;
52057;SDS011;38063;53.210;6.504;2023-03-11T03:35:10;4.00;;;0.88;;
52057;SDS011;38063;53.210;6.504;2023-03-11T03:37:36;8.60;;;1.67;;
52057;SDS011;38063;53.210;6.504;2023-03-11T03:40:03;6.72;;;1.05;;
52057;SDS011;38063;53.210;6.504;2023-03-11T03:42:32;3.10;;;1.10;;
52057;SDS011;38063;53.210;6.504;2023-03-11T03:44:59;4.70;;;0.88;;
52057;SDS011;38063;53.210;6.504;2023-03-11T03:47:25;4.35;;;1.00;;
52057;SDS011;38063;53.210;6.504;2023-03-11T03:49:50;2.05;;;0.80;;
52057;SDS011;38063;53.210;6.504;2023-03-11T03:52:16;4.28;;;1.10;;
52057;SDS011;38063;53.210;6.504;2023-03-11T03:54:42;6.80;;;1.17;;
52057;SDS011;38063;53.210;6.504;2023-03-11T03:57:07;5.00;;;1.00;;
52057;SDS011;38063;53.210;6.504;2023-03-11T03:59:33;3.72;;;0.90;;
52057;SDS011;38063;53.210;6.504;2023-03-11T04:01:59;3.63;;;1.00;;
52057;SDS011;38063;53.210;6.504;2023-03-11T04:04:25;1.40;;;0.68;;
52057;SDS011;38063;53.210;6.504;2023-03-11T04:06:51;2.60;;;1.02;;
52057;SDS011;38063;53.210;6.504;2023-03-11T04:09:17;2.20;;;0.70;;
52057;SDS011;38063;53.210;6.504;2023-03-11T04:11:43;4.63;;;1.05;;
52057;SDS011;38063;53.210;6.504;2023-03-11T04:14:08;3.90;;;0.70;;
52057;SDS011;38063;53.210;6.504;2023-03-11T04:16:34;3.40;;;0.70;;
52057;SDS011;38063;53.210;6.504;2023-03-11T04:18:59;1.80;;;0.68;;
52057;SDS011;38063;53.210;6.504;2023-03-11T04:21:25;1.48;;;0.70;;
52057;SDS011;38063;53.210;6.504;2023-03-11T04:23:51;7.75;;;1.50;;
52057;SDS011;38063;53.210;6.504;2023-03-11T04:26:17;2.95;;;0.85;;
52057;SDS011;38063;53.210;6.504;2023-03-11T04:28:42;1.40;;;0.63;;
52057;SDS011;38063;53.210;6.504;2023-03-11T04:31:08;2.47;;;0.90;;
52057;SDS011;38063;53.210;6.504;2023-03-11T04:33:34;2.35;;;0.88;;
52057;SDS011;38063;53.210;6.504;2023-03-11T04:36:03;3.60;;;1.00;;
52057;SDS011;38063;53.210;6.504;2023-03-11T04:38:30;4.07;;;0.88;;
52057;SDS011;38063;53.210;6.504;2023-03-11T04:40:58;7.57;;;1.20;;
52057;SDS011;38063;53.210;6.504;2023-03-11T04:43:25;6.63;;;1.45;;
52057;SDS011;38063;53.210;6.504;2023-03-11T04:45:51;4.57;;;0.75;;
52057;SDS011;38063;53.210;6.504;2023-03-11T04:48:17;4.75;;;1.10;;
52057;SDS011;38063;53.210;6.504;2023-03-11T04:50:42;7.32;;;0.90;;
52057;SDS011;38063;53.210;6.504;2023-03-11T04:53:08;3.38;;;0.90;;
52057;SDS011;38063;53.210;6.504;2023-03-11T04:55:33;1.63;;;0.70;;
52057;SDS011;38063;53.210;6.504;2023-03-11T04:57:59;2.15;;;0.80;;
52057;SDS011;38063;53.210;6.504;2023-03-11T05:00:25;4.55;;;0.98;;
52057;SDS011;38063;53.210;6.504;2023-03-11T05:02:50;3.63;;;0.90;;
52057;SDS011;38063;53.210;6.504;2023-03-11T05:05:16;4.20;;;0.65;;
52057;SDS011;38063;53.210;6.504;2023-03-11T05:07:45;6.88;;;1.13;;
52057;SDS011;38063;53.210;6.504;2023-03-11T05:10:11;1.33;;;0.80;;
52057;SDS011;38063;53.210;6.504;2023-03-11T05:12:37;4.30;;;0.75;;
52057;SDS011;38063;53.210;6.504;2023-03-11T05:15:03;5.25;;;1.33;;
52057;SDS011;38063;53.210;6.504;2023-03-11T05:17:29;9.13;;;2.05;;
52057;SDS011;38063;53.210;6.504;2023-03-11T05:19:55;1.92;;;0.90;;
52057;SDS011;38063;53.210;6.504;2023-03-11T05:22:21;3.35;;;1.00;;
52057;SDS011;38063;53.210;6.504;2023-03-11T05:24:47;5.10;;;1.00;;
52057;SDS011;38063;53.210;6.504;2023-03-11T05:27:13;4.75;;;1.30;;
52057;SDS011;38063;53.210;6.504;2023-03-11T05:29:43;2.03;;;0.65;;
52057;SDS011;38063;53.210;6.504;2023-03-11T05:32:09;4.85;;;1.05;;
52057;SDS011;38063;53.210;6.504;2023-03-11T05:34:36;3.90;;;0.82;;
52057;SDS011;38063;53.210;6.504;2023-03-11T05:37:02;5.63;;;0.90;;
52057;SDS011;38063;53.210;6.504;2023-03-11T05:39:28;4.28;;;1.10;;
52057;SDS011;38063;53.210;6.504;2023-03-11T05:41:54;1.48;;;0.80;;
52057;SDS011;38063;53.210;6.504;2023-03-11T05:44:21;3.08;;;0.98;;
52057;SDS011;38063;53.210;6.504;2023-03-11T05:46:46;3.58;;;0.90;;
52057;SDS011;38063;53.210;6.504;2023-03-11T05:49:12;8.52;;;1.50;;
52057;SDS011;38063;53.210;6.504;2023-03-11T05:51:38;6.50;;;1.10;;
52057;SDS011;38063;53.210;6.504;2023-03-11T05:54:04;6.20;;;1.27;;
52057;SDS011;38063;53.210;6.504;2023-03-11T05:56:35;5.93;;;1.05;;
52057;SDS011;38063;53.210;6.504;2023-03-11T05:59:01;4.57;;;1.67;;
52057;SDS011;38063;53.210;6.504;2023-03-11T06:01:27;3.08;;;1.23;;
52057;SDS011;38063;53.210;6.504;2023-03-11T06:03:52;6.95;;;1.25;;
52057;SDS011;38063;53.210;6.504;2023-03-11T06:06:18;4.63;;;1.55;;
52057;SDS011;38063;53.210;6.504;2023-03-11T06:08:44;3.15;;;1.00;;
52057;SDS011;38063;53.210;6.504;2023-03-11T06:11:13;3.42;;;1.10;;
52057;SDS011;38063;53.210;6.504;2023-03-11T06:13:39;1.92;;;1.02;;
52057;SDS011;38063;53.210;6.504;2023-03-11T06:16:05;4.75;;;1.30;;
52057;SDS011;38063;53.210;6.504;2023-03-11T06:18:33;4.20;;;1.38;;
52057;SDS011;38063;53.210;6.504;2023-03-11T06:20:59;3.42;;;1.40;;
52057;SDS011;38063;53.210;6.504;2023-03-11T06:23:26;3.60;;;1.35;;
52057;SDS011;38063;53.210;6.504;2023-03-11T06:28:22;4.13;;;1.63;;
52057;SDS011;38063;53.210;6.504;2023-03-11T06:30:48;3.28;;;1.38;;
52057;SDS011;38063;53.210;6.504;2023-03-11T06:33:13;2.58;;;1.42;;
52057;SDS011;38063;53.210;6.504;2023-03-11T06:35:39;1.63;;;0.90;;
52057;SDS011;38063;53.210;6.504;2023-03-11T06:38:05;6.63;;;1.65;;
52057;SDS011;38063;53.210;6.504;2023-03-11T06:40:31;4.80;;;1.42;;
52057;SDS011;38063;53.210;6.504;2023-03-11T06:42:57;5.97;;;1.08;;
52057;SDS011;38063;53.210;6.504;2023-03-11T06:45:23;4.50;;;1.38;;
52057;SDS011;38063;53.210;6.504;2023-03-11T06:47:49;2.58;;;1.20;;
52057;SDS011;38063;53.210;6.504;2023-03-11T06:50:14;5.45;;;1.40;;
52057;SDS011;38063;53.210;6.504;2023-03-11T06:52:40;4.60;;;1.30;;
52057;SDS011;38063;53.210;6.504;2023-03-11T06:55:06;5.03;;;1.30;;
52057;SDS011;38063;53.210;6.504;2023-03-11T06:57:32;3.80;;;1.35;;
52057;SDS011;38063;53.210;6.504;2023-03-11T06:59:58;3.67;;;1.30;;
52057;SDS011;38063;53.210;6.504;2023-03-11T07:02:24;2.55;;;1.20;;
52057;SDS011;38063;53.210;6.504;2023-03-11T07:04:50;4.97;;;1.40;;
52057;SDS011;38063;53.210;6.504;2023-03-11T07:07:15;4.80;;;1.50;;
52057;SDS011;38063;53.210;6.504;2023-03-11T07:09:41;3.67;;;1.60;;
52057;SDS011;38063;53.210;6.504;2023-03-11T07:12:07;5.50;;;1.27;;
52057;SDS011;38063;53.210;6.504;2023-03-11T07:14:33;8.10;;;1.70;;
52057;SDS011;38063;53.210;6.504;2023-03-11T07:16:59;5.20;;;1.50;;
52057;SDS011;38063;53.210;6.504;2023-03-11T07:19:25;4.07;;;1.30;;
52057;SDS011;38063;53.210;6.504;2023-03-11T07:21:50;4.15;;;1.63;;
52057;SDS011;38063;53.210;6.504;2023-03-11T07:24:16;4.65;;;1.95;;
52057;SDS011;38063;53.210;6.504;2023-03-11T07:26:42;5.65;;;1.70;;
52057;SDS011;38063;53.210;6.504;2023-03-11T07:29:07;4.50;;;1.45;;
52057;SDS011;38063;53.210;6.504;2023-03-11T07:31:34;7.30;;;1.40;;
52057;SDS011;38063;53.210;6.504;2023-03-11T07:34:02;4.97;;;1.75;;
52057;SDS011;38063;53.210;6.504;2023-03-11T07:36:29;2.60;;;1.40;;
52057;SDS011;38063;53.210;6.504;2023-03-11T07:38:56;5.15;;;1.50;;
52057;SDS011;38063;53.210;6.504;2023-03-11T07:41:28;3.92;;;1.67;;
52057;SDS011;38063;53.210;6.504;2023-03-11T07:43:54;8.85;;;1.58;;
52057;SDS011;38063;53.210;6.504;2023-03-11T07:46:21;7.97;;;1.50;;
52057;SDS011;38063;53.210;6.504;2023-03-11T07:48:48;3.08;;;1.30;;
52057;SDS011;38063;53.210;6.504;2023-03-11T07:51:19;8.50;;;2.35;;
52057;SDS011;38063;53.210;6.504;2023-03-11T07:53:47;8.98;;;1.90;;
52057;SDS011;38063;53.210;6.504;2023-03-11T07:56:13;4.28;;;1.40;;
52057;SDS011;38063;53.210;6.504;2023-03-11T07:58:41;4.43;;;1.40;;
52057;SDS011;38063;53.210;6.504;2023-03-11T08:01:08;7.68;;;1.60;;
52057;SDS011;38063;53.210;6.504;2023-03-11T08:03:35;6.10;;;1.67;;
52057;SDS011;38063;53.210;6.504;2023-03-11T08:06:02;5.05;;;1.60;;
52057;SDS011;38063;53.210;6.504;2023-03-11T08:08:35;3.85;;;1.42;;
52057;SDS011;38063;53.210;6.504;2023-03-11T08:11:04;3.72;;;1.33;;
52057;SDS011;38063;53.210;6.504;2023-03-11T08:13:31;7.38;;;1.60;;
52057;SDS011;38063;53.210;6.504;2023-03-11T08:15:57;6.32;;;1.42;;
52057;SDS011;38063;53.210;6.504;2023-03-11T08:18:22;4.55;;;1.42;;
52057;SDS011;38063;53.210;6.504;2023-03-11T08:20:48;4.55;;;1.73;;
52057;SDS011;38063;53.210;6.504;2023-03-11T08:23:14;5.10;;;1.90;;
52057;SDS011;38063;53.210;6.504;2023-03-11T08:25:40;3.72;;;1.70;;
52057;SDS011;38063;53.210;6.504;2023-03-11T08:28:06;2.70;;;1.17;;
52057;SDS011;38063;53.210;6.504;2023-03-11T08:30:33;5.15;;;1.35;;
52057;SDS011;38063;53.210;6.504;2023-03-11T08:32:58;5.03;;;1.65;;
52057;SDS011;38063;53.210;6.504;2023-03-11T08:35:24;7.15;;;1.65;;
52057;SDS011;38063;53.210;6.504;2023-03-11T08:37:51;3.72;;;1.23;;
52057;SDS011;38063;53.210;6.504;2023-03-11T08:40:17;12.15;;;1.70;;
52057;SDS011;38063;53.210;6.504;2023-03-11T08:42:43;6.50;;;1.58;;
52057;SDS011;38063;53.210;6.504;2023-03-11T08:45:08;5.05;;;2.15;;
52057;SDS011;38063;53.210;6.504;2023-03-11T08:47:35;5.97;;;1.70;;
52057;SDS011;38063;53.210;6.504;2023-03-11T08:50:02;6.97;;;1.70;;
52057;SDS011;38063;53.210;6.504;2023-03-11T08:52:30;6.38;;;2.05;;
52057;SDS011;38063;53.210;6.504;2023-03-11T08:54:56;14.93;;;2.53;;
52057;SDS011;38063;53.210;6.504;2023-03-11T08:57:21;4.40;;;1.85;;
52057;SDS011;38063;53.210;6.504;2023-03-11T08:59:47;7.22;;;1.75;;
52057;SDS011;38063;53.210;6.504;2023-03-11T09:02:13;6.28;;;1.50;;
52057;SDS011;38063;53.210;6.504;2023-03-11T09:04:38;9.93;;;2.08;;
52057;SDS011;38063;53.210;6.504;2023-03-11T09:07:04;4.43;;;1.70;;
52057;SDS011;38063;53.210;6.504;2023-03-11T09:09:30;6.45;;;1.70;;
52057;SDS011;38063;53.210;6.504;2023-03-11T09:11:56;7.47;;;1.73;;
52057;SDS011;38063;53.210;6.504;2023-03-11T09:14:21;7.78;;;1.65;;
52057;SDS011;38063;53.210;6.504;2023-03-11T09:16:47;4.95;;;1.40;;
52057;SDS011;38063;53.210;6.504;2023-03-11T09:19:13;7.82;;;1.70;;
52057;SDS011;38063;53.210;6.504;2023-03-11T09:21:38;3.58;;;1.60;;
52057;SDS011;38063;53.210;6.504;2023-03-11T09:24:04;8.52;;;1.92;;
52057;SDS011;38063;53.210;6.504;2023-03-11T09:26:30;11.50;;;2.00;;
52057;SDS011;38063;53.210;6.504;2023-03-11T09:28:56;4.25;;;1.88;;
52057;SDS011;38063;53.210;6.504;2023-03-11T09:31:22;2.35;;;1.23;;
52057;SDS011;38063;53.210;6.504;2023-03-11T09:33:48;6.65;;;1.77;;
52057;SDS011;38063;53.210;6.504;2023-03-11T09:36:17;4.07;;;1.65;;
52057;SDS011;38063;53.210;6.504;2023-03-11T09:38:43;9.40;;;2.00;;
52057;SDS011;38063;53.210;6.504;2023-03-11T09:54:39;7.22;;;2.03;;
52057;SDS011;38063;53.210;6.504;2023-03-11T09:57:08;4.55;;;1.67;;
52057;SDS011;38063;53.210;6.504;2023-03-11T09:59:42;4.87;;;1.60;;
52057;SDS011;38063;53.210;6.504;2023-03-11T10:02:11;5.32;;;1.52;;
52057;SDS011;38063;53.210;6.504;2023-03-11T10:04:42;7.00;;;2.60;;
52057;SDS011;38063;53.210;6.504;2023-03-11T10:07:16;8.25;;;1.55;;
52057;SDS011;38063;53.210;6.504;2023-03-11T10:09:50;7.53;;;2.47;;
52057;SDS011;38063;53.210;6.504;2023-03-11T10:23:33;8.65;;;2.25;;
52057;SDS011;38063;53.210;6.504;2023-03-11T10:28:35;6.07;;;2.00;;
52057;SDS011;38063;53.210;6.504;2023-03-11T10:34:03;4.38;;;1.95;;
52057;SDS011;38063;53.210;6.504;2023-03-11T10:36:40;6.05;;;2.00;;
52057;SDS011;38063;53.210;6.504;2023-03-11T10:39:15;8.63;;;1.83;;
52057;SDS011;38063;53.210;6.504;2023-03-11T10:44:41;7.40;;;1.65;;
52057;SDS011;38063;53.210;6.504;2023-03-11T10:47:11;4.28;;;1.23;;
52057;SDS011;38063;53.210;6.504;2023-03-11T10:49:45;2.72;;;1.40;;
52057;SDS011;38063;53.210;6.504;2023-03-11T10:52:11;4.10;;;1.20;;
52057;SDS011;38063;53.210;6.504;2023-03-11T10:54:38;5.72;;;1.15;;
52057;SDS011;38063;53.210;6.504;2023-03-11T10:59:57;7.95;;;1.38;;
52057;SDS011;38063;53.210;6.504;2023-03-11T11:07:42;6.00;;;1.60;;
52057;SDS011;38063;53.210;6.504;2023-03-11T11:10:26;2.95;;;1.20;;
52057;SDS011;38063;53.210;6.504;2023-03-11T11:13:00;5.78;;;1.60;;
52057;SDS011;38063;53.210;6.504;2023-03-11T11:15:57;8.35;;;1.88;;
52057;SDS011;38063;53.210;6.504;2023-03-11T11:18:27;5.93;;;1.70;;
52057;SDS011;38063;53.210;6.504;2023-03-11T11:21:15;7.53;;;1.70;;
52057;SDS011;38063;53.210;6.504;2023-03-11T11:27:14;7.82;;;1.75;;
52057;SDS011;38063;53.210;6.504;2023-03-11T11:29:40;2.88;;;1.27;;
52057;SDS011;38063;53.210;6.504;2023-03-11T11:35:00;5.20;;;1.73;;
52057;SDS011;38063;53.210;6.504;2023-03-11T11:37:28;5.50;;;1.50;;
52057;SDS011;38063;53.210;6.504;2023-03-11T11:39:58;6.50;;;1.27;;
52057;SDS011;38063;53.210;6.504;2023-03-11T11:42:35;5.15;;;1.67;;
52057;SDS011;38063;53.210;6.504;2023-03-11T11:47:48;4.22;;;1.30;;
52057;SDS011;38063;53.210;6.504;2023-03-11T11:50:39;5.88;;;1.67;;
52057;SDS011;38063;53.210;6.504;2023-03-11T11:53:24;4.78;;;2.53;;
52057;SDS011;38063;53.210;6.504;2023-03-11T11:55:54;6.13;;;1.30;;
52057;SDS011;38063;53.210;6.504;2023-03-11T11:58:20;3.42;;;1.40;;
52057;SDS011;38063;53.210;6.504;2023-03-11T12:06:23;4.50;;;1.75;;
52057;SDS011;38063;53.210;6.504;2023-03-11T12:17:31;2.78;;;0.80;;
52057;SDS011;38063;53.210;6.504;2023-03-11T12:20:03;7.47;;;0.90;;
52057;SDS011;38063;53.210;6.504;2023-03-11T12:28:44;3.97;;;0.80;;
52057;SDS011;38063;53.210;6.504;2023-03-11T12:31:15;2.40;;;0.77;;
52057;SDS011;38063;53.210;6.504;2023-03-11T12:33:42;3.90;;;0.98;;
52057;SDS011;38063;53.210;6.504;2023-03-11T12:39:06;3.53;;;1.02;;
52057;SDS011;38063;53.210;6.504;2023-03-11T12:41:43;7.30;;;1.20;;
52057;SDS011;38063;53.210;6.504;2023-03-11T12:49:25;4.65;;;0.90;;
52057;SDS011;38063;53.210;6.504;2023-03-11T12:51:59;3.38;;;1.17;;
52057;SDS011;38063;53.210;6.504;2023-03-11T12:54:46;2.78;;;0.88;;
52057;SDS011;38063;53.210;6.504;2023-03-11T13:05:22;5.43;;;1.35;;
52057;SDS011;38063;53.210;6.504;2023-03-11T13:15:47;3.10;;;0.90;;
52057;SDS011;38063;53.210;6.504;2023-03-11T13:18:16;5.95;;;1.13;;
52057;SDS011;38063;53.210;6.504;2023-03-11T13:20:48;3.83;;;1.23;;
52057;SDS011;38063;53.210;6.504;2023-03-11T13:23:23;6.90;;;0.80;;
52057;SDS011;38063;53.210;6.504;2023-03-11T13:28:50;7.88;;;1.60;;
52057;SDS011;38063;53.210;6.504;2023-03-11T13:34:14;4.97;;;1.00;;
52057;SDS011;38063;53.210;6.504;2023-03-11T13:42:12;3.15;;;0.80;;
52057;SDS011;38063;53.210;6.504;2023-03-11T13:44:45;4.50;;;1.00;;
52057;SDS011;38063;53.210;6.504;2023-03-11T13:47:13;3.40;;;1.10;;
52057;SDS011;38063;53.210;6.504;2023-03-11T13:52:26;2.88;;;0.50;;
52057;SDS011;38063;53.210;6.504;2023-03-11T13:55:02;3.38;;;0.85;;
52057;SDS011;38063;53.210;6.504;2023-03-11T13:57:30;2.88;;;0.55;;
52057;SDS011;38063;53.210;6.504;2023-03-11T14:00:19;4.00;;;1.00;;
52057;SDS011;38063;53.210;6.504;2023-03-11T14:02:56;5.05;;;0.82;;
52057;SDS011;38063;53.210;6.504;2023-03-11T14:05:29;2.17;;;0.70;;
52057;SDS011;38063;53.210;6.504;2023-03-11T14:10:53;3.50;;;1.10;;
52057;SDS011;38063;53.210;6.504;2023-03-11T14:13:27;1.98;;;1.00;;
52057;SDS011;38063;53.210;6.504;2023-03-11T14:18:43;8.52;;;1.85;;
52057;SDS011;38063;53.210;6.504;2023-03-11T14:21:11;3.97;;;0.85;;
52057;SDS011;38063;53.210;6.504;2023-03-11T14:23:48;3.22;;;0.80;;
52057;SDS011;38063;53.210;6.504;2023-03-11T14:28:53;6.03;;;1.02;;
52057;SDS011;38063;53.210;6.504;2023-03-11T14:31:40;4.93;;;1.10;;
52057;SDS011;38063;53.210;6.504;2023-03-11T14:34:21;2.55;;;0.70;;
52057;SDS011;38063;53.210;6.504;2023-03-11T14:41:54;4.97;;;0.82;;
52057;SDS011;38063;53.210;6.504;2023-03-11T14:44:26;4.57;;;0.70;;
52057;SDS011;38063;53.210;6.504;2023-03-11T14:46:56;4.03;;;1.08;;
52057;SDS011;38063;53.210;6.504;2023-03-11T14:49:29;2.60;;;1.27;;
52057;SDS011;38063;53.210;6.504;2023-03-11T14:51:59;2.97;;;0.70;;
52057;SDS011;38063;53.210;6.504;2023-03-11T14:54:30;4.18;;;1.08;;
52057;SDS011;38063;53.210;6.504;2023-03-11T14:57:00;3.45;;;0.85;;
52057;SDS011;38063;53.210;6.504;2023-03-11T14:59:32;3.95;;;1.13;;
52057;SDS011;38063;53.210;6.504;2023-03-11T15:02:11;3.03;;;0.77;;
52057;SDS011;38063;53.210;6.504;2023-03-11T15:04:55;3.67;;;0.90;;
52057;SDS011;38063;53.210;6.504;2023-03-11T15:07:23;2.83;;;0.77;;
52057;SDS011;38063;53.210;6.504;2023-03-11T15:09:48;3.10;;;0.82;;
52057;SDS011;38063;53.210;6.504;2023-03-11T15:14:55;1.77;;;0.88;;
52057;SDS011;38063;53.210;6.504;2023-03-11T15:19:49;2.50;;;0.80;;
52057;SDS011;38063;53.210;6.504;2023-03-11T15:22:28;1.92;;;0.80;;
52057;SDS011;38063;53.210;6.504;2023-03-11T15:25:00;2.10;;;0.80;;
52057;SDS011;38063;53.210;6.504;2023-03-11T15:27:32;2.10;;;0.70;;
52057;SDS011;38063;53.210;6.504;2023-03-11T15:30:00;0.88;;;0.70;;
52057;SDS011;38063;53.210;6.504;2023-03-11T15:34:58;0.60;;;0.40;;
52057;SDS011;38063;53.210;6.504;2023-03-11T15:37:25;1.00;;;0.52;;
52057;SDS011;38063;53.210;6.504;2023-03-11T15:39:51;3.00;;;0.93;;
52057;SDS011;38063;53.210;6.504;2023-03-11T15:42:21;3.25;;;0.90;;
52057;SDS011;38063;53.210;6.504;2023-03-11T15:47:23;2.45;;;0.63;;
52057;SDS011;38063;53.210;6.504;2023-03-11T15:49:49;5.78;;;0.93;;
52057;SDS011;38063;53.210;6.504;2023-03-11T15:52:15;1.63;;;0.70;;
52057;SDS011;38063;53.210;6.504;2023-03-11T15:54:43;3.67;;;1.05;;
52057;SDS011;38063;53.210;6.504;2023-03-11T15:57:09;5.50;;;2.20;;
52057;SDS011;38063;53.210;6.504;2023-03-11T15:59:49;5.15;;;2.50;;
52057;SDS011;38063;53.210;6.504;2023-03-11T16:02:20;3.58;;;1.05;;
52057;SDS011;38063;53.210;6.504;2023-03-11T16:04:47;3.28;;;0.90;;
52057;SDS011;38063;53.210;6.504;2023-03-11T16:07:13;1.83;;;0.88;;
52057;SDS011;38063;53.210;6.504;2023-03-11T16:09:39;2.42;;;0.85;;
52057;SDS011;38063;53.210;6.504;2023-03-11T16:12:11;2.13;;;0.90;;
52057;SDS011;38063;53.210;6.504;2023-03-11T16:14:47;1.75;;;0.82;;
52057;SDS011;38063;53.210;6.504;2023-03-11T16:17:14;6.28;;;1.70;;
52057;SDS011;38063;53.210;6.504;2023-03-11T16:19:41;4.22;;;1.00;;
52057;SDS011;38063;53.210;6.504;2023-03-11T16:22:09;4.30;;;1.10;;
52057;SDS011;38063;53.210;6.504;2023-03-11T16:24:41;3.90;;;0.80;;
52057;SDS011;38063;53.210;6.504;2023-03-11T16:27:08;5.78;;;1.17;;
52057;SDS011;38063;53.210;6.504;2023-03-11T16:29:38;3.70;;;1.65;;
52057;SDS011;38063;53.210;6.504;2023-03-11T16:32:04;6.55;;;2.25;;
52057;SDS011;38063;53.210;6.504;2023-03-11T16:34:30;4.28;;;1.20;;
52057;SDS011;38063;53.210;6.504;2023-03-11T16:36:55;3.47;;;1.33;;
52057;SDS011;38063;53.210;6.504;2023-03-11T16:39:21;5.78;;;2.65;;
52057;SDS011;38063;53.210;6.504;2023-03-11T16:41:47;12.35;;;6.07;;
52057;SDS011;38063;53.210;6.504;2023-03-11T16:44:12;12.00;;;4.43;;
52057;SDS011;38063;53.210;6.504;2023-03-11T16:46:38;4.97;;;2.70;;
52057;SDS011;38063;53.210;6.504;2023-03-11T16:49:04;4.57;;;1.50;;
52057;SDS011;38063;53.210;6.504;2023-03-11T16:51:30;2.70;;;1.08;;
52057;SDS011;38063;53.210;6.504;2023-03-11T16:53:56;4.95;;;1.10;;
52057;SDS011;38063;53.210;6.504;2023-03-11T16:56:21;2.50;;;1.20;;
52057;SDS011;38063;53.210;6.504;2023-03-11T16:58:47;7.22;;;1.23;;
52057;SDS011;38063;53.210;6.504;2023-03-11T17:01:13;3.60;;;1.38;;
52057;SDS011;38063;53.210;6.504;2023-03-11T17:03:41;4.25;;;0.93;;
52057;SDS011;38063;53.210;6.504;2023-03-11T17:06:07;3.60;;;0.88;;
52057;SDS011;38063;53.210;6.504;2023-03-11T17:08:33;5.38;;;1.25;;
52057;SDS011;38063;53.210;6.504;2023-03-11T17:10:59;4.00;;;1.13;;
52057;SDS011;38063;53.210;6.504;2023-03-11T17:13:24;3.95;;;1.10;;
52057;SDS011;38063;53.210;6.504;2023-03-11T17:15:57;5.90;;;1.25;;
52057;SDS011;38063;53.210;6.504;2023-03-11T17:18:24;2.40;;;1.00;;